Umiujaq Airport
CYMU : now visible

Airfield :











YOU CAN JOIN US ON...

 
LOGIN :

Register | Disclaimer

   EN    FR    IT 

 









Legend :    VFR   Marginal VFR   IFR   Intensive IFR   Very Intensive IFR
Visi :
Ceiling :
>= 8 km
>= 3000ft
5 to 8 km
1000 to 3000 ft
1500m to 5 km
500 to 1000 ft
800 to 1500m
200 to 500 ft
< 800m
< 200 ft
Symbols :   Thunderstorms  Fog  Heavy snow  Heavy precipitations  Wind > 20 kt






- Airport Elevation : 250 ft
- IATA code : YUD


CYMU - Umiujaq

CURRENT METAR :
  • 121917Z 24021G28KT 10SM -SHSN DRSN FEW023 BKN035 OVC056 M13/M17 A2997 RMK SC2SC5SC1 SLP159

EXPIRED METARs :
  • 121900Z 25022KT 1/2SM -SHSN BLSN SCT023 OVC061 M13/M17 A2997 RMK BLSN2SC2SC4 TOWER VSBY 12 SLP161
  • 121800Z 14013KT 5SM -SHSN DRSN FEW008 FEW016 OVC034 M17/M20 A2996 RMK ST1SC1SC6 SLP158
  • 121750Z 14012KT 3SM -SHSN DRSN FEW008 SCT016 OVC034 M17/M20 A2996 RMK ST1SC2SC5 SLP159
  • 121723Z 14013KT 1 1/2SM -SHSN DRSN FEW012 FEW014 OVC034 M18/M21 A2996 RMK ST1ST1SC6 SLP157
  • 121700Z 13014G23KT 1SM -SHSN DRSN FEW011 BKN017 OVC028 M19/M22 A2995 RMK ST1SC5SC2 SLP155
  • 121643Z 11013G18KT 3SM -SHSN DRSN FEW016 SCT023 BKN085 BKN300 M20/M24 A2995 RMK SC1SC3AS2CI1 SLP154

TAF N/A



MET'MAP, your aeronautical weather chart ! - Copyright ORBIFLY December 2007 - Disclaimer

ORBIFLY MET'MAP TEAM :

Programming & Development : Alexandra Zaïnal
Concept & original design : Baudouin d'Aumeries
Assistance for programming : Marc-Olivier Méhu
Technical & hardware support : Manuel Goepfert

Contact : metmap@orbifly.com




SOURCES & CREDITS :

   NOAA       Earth
Advisory